createdAt,value
2018-08-20T00:00:04.587Z,52.88
2018-08-20T00:02:36.872Z,52.52
2018-08-20T00:05:07.993Z,53.00
2018-08-20T00:07:39.381Z,52.59
2018-08-20T00:10:10.684Z,52.83
2018-08-20T00:12:41.525Z,52.87
2018-08-20T00:15:10.368Z,52.01
2018-08-20T00:17:41.332Z,52.30
2018-08-20T00:20:11.199Z,52.30
2018-08-20T00:22:40.712Z,52.62
2018-08-20T00:25:15.056Z,52.45
2018-08-20T00:27:44.642Z,52.33
2018-08-20T00:30:16.500Z,52.40
2018-08-20T00:32:47.215Z,52.58
2018-08-20T00:35:18.645Z,52.66
2018-08-20T00:37:50.087Z,52.17
2018-08-20T00:40:21.376Z,53.25
2018-08-20T00:42:50.938Z,52.53
2018-08-20T00:45:21.243Z,52.85
2018-08-20T00:47:50.881Z,53.29
2018-08-20T00:50:20.254Z,53.62
2018-08-20T00:52:49.341Z,52.73
2018-08-20T00:55:19.108Z,53.03
2018-08-20T00:57:48.418Z,52.51
2018-08-20T01:00:17.764Z,52.83
2018-08-20T01:02:48.115Z,52.90
2018-08-20T01:05:17.571Z,52.54
2018-08-20T01:07:48.437Z,52.19
2018-08-20T01:10:18.236Z,52.64
2018-08-20T01:12:47.001Z,51.94
2018-08-20T01:15:16.471Z,52.31
2018-08-20T01:17:45.969Z,51.80
2018-08-20T01:20:15.895Z,51.24
2018-08-20T01:22:46.986Z,52.56
2018-08-20T01:25:16.959Z,51.37
2018-08-20T01:27:49.968Z,52.47
2018-08-20T01:30:20.176Z,52.24
2018-08-20T01:32:51.626Z,52.18
2018-08-20T01:35:24.962Z,51.98
2018-08-20T01:37:54.737Z,51.92
2018-08-20T01:40:24.460Z,52.68
2018-08-20T01:42:54.046Z,51.93
2018-08-20T01:45:24.251Z,52.64
2018-08-20T01:47:52.984Z,52.72
2018-08-20T01:50:22.783Z,52.26
2018-08-20T01:52:52.146Z,52.38
2018-08-20T01:55:21.417Z,52.19
2018-08-20T01:57:50.541Z,51.09
2018-08-20T02:00:20.565Z,52.77
2018-08-20T02:02:54.448Z,52.27
2018-08-20T02:05:24.595Z,53.09
2018-08-20T02:07:54.095Z,52.67
2018-08-20T02:10:25.052Z,52.92
2018-08-20T02:12:55.203Z,53.08
2018-08-20T02:15:25.194Z,53.45
2018-08-20T02:17:54.235Z,53.55
2018-08-20T02:20:23.498Z,52.18
2018-08-20T02:22:54.140Z,52.58
2018-08-20T02:25:23.829Z,53.69
2018-08-20T02:27:53.106Z,53.44
2018-08-20T02:30:22.847Z,53.21
2018-08-20T02:32:53.046Z,53.96
2018-08-20T02:35:22.039Z,54.37
2018-08-20T02:37:51.464Z,54.21
2018-08-20T02:40:21.455Z,54.84
2018-08-20T02:42:51.548Z,54.44
2018-08-20T02:45:21.173Z,54.78
2018-08-20T02:47:50.435Z,53.32
2018-08-20T02:50:20.356Z,54.56
2018-08-20T02:52:49.913Z,54.06
2018-08-20T02:55:19.543Z,54.36
2018-08-20T02:57:49.634Z,54.83
2018-08-20T03:00:19.047Z,55.28
2018-08-20T03:02:49.332Z,55.12
2018-08-20T03:05:19.253Z,55.17
2018-08-20T03:07:48.849Z,55.44
2018-08-20T03:10:18.270Z,55.56
2018-08-20T03:12:48.246Z,54.82
2018-08-20T03:15:17.782Z,55.40
2018-08-20T03:17:47.362Z,54.32
2018-08-20T03:20:16.918Z,55.67
2018-08-20T03:22:45.949Z,55.29
2018-08-20T03:25:15.456Z,56.13
2018-08-20T03:27:46.616Z,54.31
2018-08-20T03:30:17.303Z,56.27
2018-08-20T03:32:48.853Z,55.79
2018-08-20T03:35:18.272Z,55.99
2018-08-20T03:37:47.697Z,56.31
2018-08-20T03:40:17.181Z,55.78
2018-08-20T03:42:46.744Z,56.80
2018-08-20T03:45:15.960Z,56.50
2018-08-20T03:47:45.552Z,56.74
2018-08-20T03:50:15.707Z,56.72
2018-08-20T03:52:45.559Z,55.34
2018-08-20T03:55:14.257Z,57.20
2018-08-20T03:57:43.682Z,56.39
2018-08-20T04:00:13.664Z,57.13
2018-08-20T04:02:44.426Z,56.91
2018-08-20T04:05:14.009Z,56.48
2018-08-20T04:07:44.352Z,56.68
2018-08-20T04:10:13.715Z,57.54
2018-08-20T04:12:44.220Z,58.20
2018-08-20T04:15:16.056Z,58.49
2018-08-20T04:17:44.949Z,59.43
2018-08-20T04:20:15.538Z,59.32
2018-08-20T04:22:48.533Z,59.74
2018-08-20T04:25:18.824Z,59.93
2018-08-20T04:27:49.549Z,60.26
2018-08-20T04:30:19.696Z,61.21
2018-08-20T04:32:49.987Z,60.72
2018-08-20T04:35:18.777Z,61.24
2018-08-20T04:37:48.083Z,61.01
2018-08-20T04:40:18.505Z,62.08
2018-08-20T04:42:47.910Z,61.71
2018-08-20T04:45:19.079Z,62.54
2018-08-20T04:47:49.182Z,62.86
2018-08-20T04:50:18.989Z,62.62
2018-08-20T04:52:48.611Z,63.39
2018-08-20T04:55:17.991Z,63.38
2018-08-20T04:57:48.296Z,63.53
2018-08-20T05:00:18.013Z,63.06
2018-08-20T05:02:47.731Z,62.93
2018-08-20T05:05:20.093Z,63.92
2018-08-20T05:07:51.137Z,63.38
2018-08-20T05:10:20.914Z,63.62
2018-08-20T05:12:49.861Z,63.83
2018-08-20T05:15:19.336Z,64.48
2018-08-20T05:17:49.795Z,63.00
2018-08-20T05:20:20.239Z,62.94
2018-08-20T05:22:49.237Z,62.88
2018-08-20T05:25:19.753Z,63.87
2018-08-20T05:27:49.175Z,63.00
2018-08-20T05:30:18.912Z,62.58
2018-08-20T05:32:48.604Z,62.66
2018-08-20T05:35:18.350Z,62.78
2018-08-20T05:37:48.093Z,61.68
2018-08-20T05:40:18.138Z,61.43
2018-08-20T05:42:47.579Z,62.05
2018-08-20T05:45:18.036Z,61.11
2018-08-20T05:47:46.831Z,61.82
2018-08-20T05:50:16.617Z,62.22
2018-08-20T05:52:46.360Z,61.86
2018-08-20T05:55:16.892Z,60.20
2018-08-20T05:57:47.560Z,61.24
2018-08-20T06:00:17.745Z,60.75
2018-08-20T06:02:47.814Z,61.14
2018-08-20T06:05:17.180Z,60.19
2018-08-20T06:07:47.843Z,61.05
2018-08-20T06:10:17.561Z,60.69
2018-08-20T06:12:47.814Z,60.84
2018-08-20T06:15:16.683Z,60.11
2018-08-20T06:17:45.957Z,59.65
2018-08-20T06:20:16.854Z,60.87
2018-08-20T06:22:46.612Z,59.72
2018-08-20T06:25:16.420Z,58.70
2018-08-20T06:27:46.009Z,58.78
2018-08-20T06:30:18.128Z,58.67
2018-08-20T06:32:48.244Z,58.95
2018-08-20T06:35:17.913Z,57.21
2018-08-20T06:37:47.410Z,57.13
2018-08-20T06:40:16.377Z,56.86
2018-08-20T06:42:47.390Z,56.41
2018-08-20T06:45:17.660Z,56.00
2018-08-20T06:47:48.342Z,57.69
2018-08-20T06:50:19.705Z,56.93
2018-08-20T06:52:50.903Z,57.05
2018-08-20T06:55:21.173Z,56.40
2018-08-20T06:57:50.604Z,56.62
2018-08-20T07:00:20.041Z,57.50
2018-08-20T07:02:50.459Z,56.18
2018-08-20T07:05:21.262Z,55.65
2018-08-20T07:07:51.003Z,56.17
2018-08-20T07:10:20.514Z,55.65
2018-08-20T07:12:49.864Z,55.88
2018-08-20T07:15:19.104Z,57.01
2018-08-20T07:17:48.791Z,58.02
2018-08-20T07:20:18.501Z,57.53
2018-08-20T07:22:47.582Z,60.08
2018-08-20T07:25:16.927Z,58.13
2018-08-20T07:27:46.643Z,58.31
2018-08-20T07:32:46.743Z,56.74
2018-08-20T07:35:16.500Z,57.21
2018-08-20T07:37:45.976Z,56.91
2018-08-20T07:40:16.210Z,57.47
2018-08-20T07:42:46.444Z,56.45
2018-08-20T07:45:15.875Z,56.90
2018-08-20T07:47:45.316Z,56.51
2018-08-20T07:50:15.355Z,56.50
2018-08-20T07:52:46.363Z,56.13
2018-08-20T07:55:15.929Z,57.05
2018-08-20T07:57:45.513Z,56.46
2018-08-20T08:00:16.426Z,57.29
2018-08-20T08:02:46.837Z,57.50
2018-08-20T08:05:17.537Z,57.68
2018-08-20T08:07:47.028Z,58.08
2018-08-20T08:10:17.329Z,57.32
2018-08-20T08:12:46.844Z,58.10
2018-08-20T08:15:16.930Z,57.43
2018-08-20T08:17:47.267Z,58.25
2018-08-20T08:20:16.748Z,57.92
2018-08-20T08:22:46.661Z,57.55
2018-08-20T08:25:16.305Z,57.86
2018-08-20T08:27:47.247Z,57.25
2018-08-20T08:30:18.387Z,56.64
2018-08-20T08:32:47.771Z,58.18
2018-08-20T08:35:18.486Z,57.90
2018-08-20T08:37:48.320Z,57.73
2018-08-20T08:40:18.314Z,57.43
2018-08-20T08:42:47.849Z,58.82
2018-08-20T08:45:18.757Z,57.80
2018-08-20T08:47:47.967Z,58.41
2018-08-20T08:50:18.232Z,58.03
2018-08-20T08:52:47.971Z,58.43
2018-08-20T08:55:17.275Z,58.00
2018-08-20T08:57:46.679Z,57.62
2018-08-20T09:00:20.557Z,58.54
2018-08-20T09:02:50.746Z,59.41
2018-08-20T09:05:20.735Z,60.55
2018-08-20T09:07:50.480Z,57.52
2018-08-20T09:10:19.490Z,57.64
2018-08-20T09:12:48.331Z,57.90
2018-08-20T09:15:18.166Z,57.94
2018-08-20T09:17:47.958Z,58.46
2018-08-20T09:20:18.213Z,58.78
2018-08-20T09:22:47.860Z,58.02
2018-08-20T09:25:17.357Z,56.32
2018-08-20T09:27:47.568Z,56.35
2018-08-20T09:30:21.106Z,55.80
2018-08-20T09:32:52.288Z,54.92
2018-08-20T09:35:21.590Z,56.46
2018-08-20T09:37:50.483Z,55.75
2018-08-20T09:40:19.435Z,55.21
2018-08-20T09:42:49.901Z,56.74
2018-08-20T09:45:18.839Z,58.41
2018-08-20T09:47:47.784Z,55.61
2018-08-20T09:50:17.292Z,56.23
2018-08-20T09:52:46.945Z,55.32
2018-08-20T09:55:15.817Z,56.07
2018-08-20T09:57:44.681Z,56.07
2018-08-20T10:00:24.002Z,56.25
2018-08-20T10:02:53.619Z,56.32
2018-08-20T10:05:24.529Z,56.58
2018-08-20T10:07:53.919Z,56.91
2018-08-20T10:10:22.927Z,56.99
2018-08-20T10:12:52.666Z,57.47
2018-08-20T10:15:22.386Z,57.68
2018-08-20T10:17:52.027Z,57.29
2018-08-20T10:20:22.398Z,57.15
2018-08-20T10:22:52.132Z,58.21
2018-08-20T10:25:21.241Z,58.65
2018-08-20T10:27:50.637Z,58.20
2018-08-20T10:30:20.434Z,58.42
2018-08-20T10:32:49.294Z,57.83
2018-08-20T10:35:18.968Z,58.20
2018-08-20T10:37:48.586Z,58.62
2018-08-20T10:40:18.051Z,56.20
2018-08-20T10:42:47.616Z,57.50
2018-08-20T10:45:18.163Z,56.20
2018-08-20T10:47:49.068Z,54.66
2018-08-20T10:50:20.176Z,53.02
2018-08-20T10:52:50.912Z,52.99
2018-08-20T10:55:20.486Z,53.83
2018-08-20T10:57:49.765Z,52.92
2018-08-20T11:00:19.415Z,51.30
2018-08-20T11:02:50.113Z,51.08
2018-08-20T11:05:20.112Z,52.18
2018-08-20T11:07:49.606Z,51.61
2018-08-20T11:10:19.625Z,51.10
2018-08-20T11:12:49.265Z,52.54
2018-08-20T11:15:19.748Z,54.52
2018-08-20T11:17:49.230Z,53.63
2018-08-20T11:20:18.975Z,54.19
2018-08-20T11:22:49.222Z,53.92
2018-08-20T11:25:18.624Z,53.68
2018-08-20T11:27:47.482Z,54.73
2018-08-20T11:30:16.942Z,55.58
2018-08-20T11:32:48.111Z,54.95
2018-08-20T11:35:18.182Z,54.42
2018-08-20T11:37:48.613Z,55.18
2018-08-20T11:40:18.192Z,53.39
2018-08-20T11:42:47.501Z,54.98
2018-08-20T11:45:16.819Z,54.35
2018-08-20T11:47:46.959Z,53.86
2018-08-20T11:50:17.560Z,54.33
2018-08-20T11:52:47.728Z,53.33
2018-08-20T11:55:18.193Z,54.30
2018-08-20T11:57:47.900Z,54.27
2018-08-20T12:00:17.335Z,54.66
2018-08-20T12:02:47.841Z,56.58
2018-08-20T12:05:17.950Z,55.01
2018-08-20T12:07:48.229Z,55.36
2018-08-20T12:10:18.637Z,55.76
2018-08-20T12:12:48.077Z,55.59
2018-08-20T12:15:17.703Z,57.07
2018-08-20T12:17:46.807Z,56.05
2018-08-20T12:20:16.524Z,58.79
2018-08-20T12:22:45.239Z,56.26
2018-08-20T12:25:15.727Z,55.69
2018-08-20T12:27:45.813Z,56.07
2018-08-20T12:30:16.134Z,55.33
2018-08-20T12:32:46.224Z,54.73
2018-08-20T12:35:15.420Z,55.90
2018-08-20T12:37:44.625Z,56.02
2018-08-20T12:40:13.902Z,55.97
2018-08-20T12:42:42.896Z,57.41
2018-08-20T12:45:12.506Z,56.84
2018-08-20T12:47:42.316Z,57.18
2018-08-20T12:50:11.779Z,57.84
2018-08-20T12:52:41.315Z,59.77
2018-08-20T12:55:11.747Z,59.34
2018-08-20T12:57:41.583Z,56.84
2018-08-20T13:00:10.461Z,58.32
2018-08-20T13:02:40.154Z,58.26
2018-08-20T13:05:09.690Z,58.33
2018-08-20T13:07:39.230Z,59.14
2018-08-20T13:10:08.654Z,58.54
2018-08-20T13:12:37.645Z,59.06
2018-08-20T13:15:07.016Z,60.77
2018-08-20T13:17:35.784Z,58.07
2018-08-20T13:20:05.944Z,58.14
2018-08-20T13:22:34.641Z,56.17
2018-08-20T13:25:03.924Z,56.59
2018-08-20T13:27:34.104Z,58.77
2018-08-20T13:30:04.974Z,55.74
2018-08-20T13:32:35.938Z,56.61
2018-08-20T13:35:06.630Z,58.05
2018-08-20T13:37:36.143Z,56.81
2018-08-20T13:40:05.309Z,57.87
2018-08-20T13:42:34.162Z,58.41
2018-08-20T13:45:06.592Z,58.88
2018-08-20T13:47:35.542Z,57.49
2018-08-20T13:50:10.250Z,57.83
2018-08-20T13:52:41.057Z,56.71
2018-08-20T13:55:10.220Z,58.53
2018-08-20T13:57:48.651Z,57.55
2018-08-20T14:00:19.276Z,57.04
2018-08-20T14:02:49.460Z,58.83
2018-08-20T14:05:19.534Z,59.21
2018-08-20T14:07:49.100Z,56.96
2018-08-20T14:10:18.613Z,56.47
2018-08-20T14:12:49.838Z,56.53
2018-08-20T14:15:18.982Z,55.99
2018-08-20T14:17:49.334Z,55.54
2018-08-20T14:20:18.821Z,57.94
2018-08-20T14:22:47.733Z,59.27
2018-08-20T14:25:17.955Z,56.58
2018-08-20T14:27:47.760Z,56.91
2018-08-20T14:30:17.896Z,56.85
2018-08-20T14:32:47.822Z,54.53
2018-08-20T14:35:17.450Z,56.20
2018-08-20T14:37:47.650Z,56.50
2018-08-20T14:40:18.265Z,54.91
2018-08-20T14:42:47.944Z,56.60
2018-08-20T14:45:17.605Z,56.73
2018-08-20T14:47:47.043Z,58.00
2018-08-20T14:50:19.271Z,57.80
2018-08-20T14:52:49.326Z,59.49
2018-08-20T14:55:18.855Z,59.76
2018-08-20T14:57:50.832Z,61.20
2018-08-20T15:00:20.480Z,61.48
2018-08-20T15:02:50.701Z,61.15
2018-08-20T15:05:21.124Z,61.50
2018-08-20T15:07:51.032Z,59.94
2018-08-20T15:10:20.053Z,59.52
2018-08-20T15:12:51.007Z,60.56
2018-08-20T15:15:20.497Z,61.73
2018-08-20T15:17:49.213Z,61.64
2018-08-20T15:20:19.213Z,62.51
2018-08-20T15:22:48.676Z,62.29
2018-08-20T15:25:18.808Z,63.25
2018-08-20T15:27:47.741Z,61.66
2018-08-20T15:30:16.528Z,62.13
2018-08-20T15:32:45.284Z,61.31
2018-08-20T15:35:14.208Z,61.81
2018-08-20T15:37:43.207Z,60.52
2018-08-20T15:40:12.057Z,61.43
2018-08-20T15:42:40.878Z,62.32
2018-08-20T15:45:09.665Z,62.40
2018-08-20T15:47:38.455Z,60.48
2018-08-20T15:50:07.416Z,60.57
2018-08-20T15:52:36.570Z,60.12
2018-08-20T15:55:05.881Z,61.41
2018-08-20T15:57:34.917Z,60.23
2018-08-20T16:00:05.767Z,60.45
2018-08-20T16:02:35.173Z,59.91
2018-08-20T16:05:03.948Z,61.08
2018-08-20T16:07:34.615Z,60.92
2018-08-20T16:10:04.504Z,59.87
2018-08-20T16:12:33.874Z,61.05
2018-08-20T16:15:03.868Z,60.79
2018-08-20T16:17:33.527Z,61.14
2018-08-20T16:20:03.704Z,61.92
2018-08-20T16:22:34.670Z,62.50
2018-08-20T16:25:05.036Z,61.25
2018-08-20T16:27:33.730Z,61.35
2018-08-20T16:30:02.647Z,61.38
2018-08-20T16:32:33.564Z,60.85
2018-08-20T16:35:03.390Z,61.56
2018-08-20T16:37:32.652Z,61.45
2018-08-20T16:40:02.195Z,62.03
2018-08-20T16:42:31.702Z,61.61
2018-08-20T16:45:02.506Z,62.09
2018-08-20T16:47:33.303Z,61.72
2018-08-20T16:50:03.432Z,62.02
2018-08-20T16:52:33.074Z,62.68
2018-08-20T16:55:02.473Z,62.02
2018-08-20T16:57:33.281Z,63.25
2018-08-20T17:00:02.973Z,62.44
2018-08-20T17:02:32.649Z,62.99
2018-08-20T17:05:02.464Z,63.04
2018-08-20T17:07:33.508Z,64.32
2018-08-20T17:10:02.633Z,65.07
2018-08-20T17:12:33.560Z,63.59
2018-08-20T17:15:02.745Z,63.22
2018-08-20T17:17:32.968Z,63.78
2018-08-20T17:20:03.903Z,63.29
2018-08-20T17:22:33.574Z,64.30
2018-08-20T17:25:04.409Z,64.32
2018-08-20T17:27:35.665Z,64.48
2018-08-20T17:30:06.346Z,65.80
2018-08-20T17:32:36.756Z,64.37
2018-08-20T17:35:08.611Z,64.30
2018-08-20T17:37:37.496Z,64.75
2018-08-20T17:40:12.299Z,66.74
2018-08-20T17:42:42.083Z,65.60
2018-08-20T17:45:10.876Z,66.10
2018-08-20T17:47:40.786Z,66.73
2018-08-20T17:50:25.197Z,66.71
2018-08-20T17:52:54.911Z,66.50
2018-08-20T17:55:23.716Z,66.13
2018-08-20T17:57:52.579Z,65.22
2018-08-20T18:00:28.169Z,66.84
2018-08-20T18:02:58.381Z,66.67
2018-08-20T18:05:27.956Z,66.66
2018-08-20T18:07:56.803Z,66.39
2018-08-20T18:10:25.551Z,66.10
2018-08-20T18:12:55.150Z,66.13
2018-08-20T18:15:25.325Z,66.54
2018-08-20T18:17:55.046Z,67.29
2018-08-20T18:20:24.449Z,65.99
2018-08-20T18:22:56.695Z,67.16
2018-08-20T18:25:29.730Z,67.50
2018-08-20T18:27:58.481Z,67.92
2018-08-20T18:30:27.561Z,66.91
2018-08-20T18:32:56.915Z,66.06
2018-08-20T18:35:30.950Z,67.53
2018-08-20T18:38:00.761Z,66.75
2018-08-20T18:40:29.440Z,67.29
2018-08-20T18:42:58.533Z,66.45
2018-08-20T18:45:27.326Z,67.20
2018-08-20T18:47:56.457Z,66.39
2018-08-20T18:50:25.248Z,68.16
2018-08-20T18:52:53.975Z,68.11
2018-08-20T18:55:22.754Z,67.86
2018-08-20T18:57:52.743Z,67.91
2018-08-20T19:00:21.684Z,68.14
2018-08-20T19:02:54.593Z,68.43
2018-08-20T19:05:23.762Z,66.93
2018-08-20T19:07:52.990Z,67.70
2018-08-20T19:10:29.104Z,67.85
2018-08-20T19:12:57.905Z,67.17
2018-08-20T19:15:37.136Z,67.82
2018-08-20T19:18:08.130Z,68.62
2018-08-20T19:20:37.378Z,68.82
2018-08-20T19:23:06.283Z,69.25
2018-08-20T19:25:36.351Z,68.30
2018-08-20T19:28:10.786Z,67.91
2018-08-20T19:30:40.229Z,69.29
2018-08-20T19:33:14.520Z,68.49
2018-08-20T19:35:46.688Z,69.27
2018-08-20T19:38:17.430Z,70.05
2018-08-20T19:40:47.018Z,67.66
2018-08-20T19:43:20.152Z,68.15
2018-08-20T19:45:51.606Z,69.20
2018-08-20T19:48:22.380Z,69.70
2018-08-20T19:50:55.056Z,68.95
2018-08-20T19:53:27.069Z,68.83
2018-08-20T19:55:57.496Z,68.39
2018-08-20T19:58:35.146Z,68.27
2018-08-20T20:01:17.707Z,69.20
2018-08-20T20:03:49.167Z,69.64
2018-08-20T20:06:19.120Z,69.61
2018-08-20T20:08:48.601Z,69.92
2018-08-20T20:11:26.607Z,70.15
2018-08-20T20:13:59.101Z,70.07
2018-08-20T20:16:32.335Z,70.03
2018-08-20T20:19:01.073Z,69.54
2018-08-20T20:21:30.311Z,70.06
2018-08-20T20:23:59.397Z,69.92
2018-08-20T20:26:29.649Z,70.23
2018-08-20T20:28:59.475Z,69.97
2018-08-20T20:31:29.482Z,70.25
2018-08-20T20:33:59.897Z,69.97
2018-08-20T20:36:31.045Z,70.20
2018-08-20T20:39:02.169Z,69.97
2018-08-20T20:41:31.532Z,69.35
2018-08-20T20:44:01.575Z,68.96
2018-08-20T20:46:31.429Z,69.95
2018-08-20T20:49:00.625Z,68.72
2018-08-20T20:51:29.760Z,68.95
2018-08-20T20:54:00.647Z,70.28
2018-08-20T20:56:29.777Z,69.27
2018-08-20T20:59:00.283Z,70.16
2018-08-20T21:01:30.148Z,69.47
2018-08-20T21:04:03.035Z,69.13
2018-08-20T21:06:33.757Z,68.53
2018-08-20T21:09:03.559Z,68.93
2018-08-20T21:11:32.932Z,68.67
2018-08-20T21:14:02.273Z,68.55
2018-08-20T21:16:31.411Z,68.75
2018-08-20T21:19:03.477Z,68.21
2018-08-20T21:21:33.966Z,67.90
2018-08-20T21:24:05.509Z,68.88
2018-08-20T21:26:35.898Z,68.38
2018-08-20T21:29:05.631Z,67.60
2018-08-20T21:31:42.524Z,67.95
2018-08-20T21:34:20.027Z,68.69
2018-08-20T21:36:49.027Z,67.17
2018-08-20T21:39:18.255Z,67.73
2018-08-20T21:41:48.365Z,67.22
2018-08-20T21:44:18.323Z,67.29
2018-08-20T21:46:48.398Z,67.49
2018-08-20T21:49:17.197Z,66.86
2018-08-20T21:51:52.251Z,67.11
2018-08-20T21:54:27.306Z,67.10
2018-08-20T21:56:57.466Z,66.20
2018-08-20T21:59:26.489Z,66.92
2018-08-20T22:01:55.887Z,65.44
2018-08-20T22:04:24.940Z,64.12
2018-08-20T22:06:53.780Z,65.08
2018-08-20T22:09:22.618Z,65.57
2018-08-20T22:11:55.734Z,65.52
2018-08-20T22:14:25.204Z,65.20
2018-08-20T22:16:55.220Z,64.96
2018-08-20T22:19:25.962Z,65.54
2018-08-20T22:21:54.651Z,65.19
2018-08-20T22:24:23.461Z,65.36
2018-08-20T22:26:59.325Z,65.40
2018-08-20T22:29:37.249Z,64.86
2018-08-20T22:32:07.820Z,64.97
2018-08-20T22:34:37.192Z,65.11
2018-08-20T22:37:08.996Z,64.42
2018-08-20T22:39:38.689Z,64.87
2018-08-20T22:42:07.590Z,65.31
2018-08-20T22:44:36.391Z,65.39
2018-08-20T22:47:06.382Z,63.64
2018-08-20T22:49:36.213Z,63.90
2018-08-20T22:52:05.645Z,62.92
2018-08-20T22:54:34.878Z,62.46
2018-08-20T22:57:05.230Z,63.20
2018-08-20T22:59:34.239Z,63.89
2018-08-20T23:02:02.991Z,63.53
2018-08-20T23:04:31.975Z,63.69
2018-08-20T23:07:05.720Z,63.39
2018-08-20T23:09:35.303Z,62.52
2018-08-20T23:12:04.070Z,63.24
2018-08-20T23:14:34.675Z,62.84
2018-08-20T23:17:03.898Z,63.28
2018-08-20T23:19:33.723Z,63.43
2018-08-20T23:22:03.442Z,62.87
2018-08-20T23:24:32.672Z,62.74
2018-08-20T23:27:01.633Z,62.68
2018-08-20T23:29:30.590Z,62.16
2018-08-20T23:31:59.376Z,62.35
2018-08-20T23:34:28.352Z,61.96
2018-08-20T23:38:00.318Z,62.16
2018-08-20T23:40:29.300Z,62.93
2018-08-20T23:42:58.356Z,61.43
2018-08-20T23:45:28.057Z,62.05
2018-08-20T23:47:57.117Z,62.40
2018-08-20T23:50:26.230Z,62.27
2018-08-20T23:52:54.986Z,61.46
2018-08-20T23:55:23.633Z,61.61
2018-08-20T23:57:52.583Z,61.80
